Time;durP1;ratioP1;P1;durP2;ratioP2;P2;SDS_P1;SDS_P2;PMS_P1;PMS_P2;Temp;Humidity;BMP_temperature;BMP_pressure;BME280_temperature;BME280_humidity;BME280_pressure;Samples;Min_cycle;Max_cycle;Signal;HPM_P1;HPM_P2
2023/05/03 00:01:19;;;;;;;2.00;1.17;;;9.80;99.90;;;;;;5052364;28;20838;-84
2023/05/03 00:03:47;;;;;;;2.43;0.97;;;9.80;99.90;;;;;;5052345;28;20451;-84
2023/05/03 00:06:16;;;;;;;1.53;0.93;;;9.70;99.90;;;;;;5053781;28;20450;-84
2023/05/03 00:08:43;;;;;;;0.87;0.83;;;9.70;99.90;;;;;;5056224;28;20450;-84
2023/05/03 00:11:10;;;;;;;1.50;0.87;;;9.80;99.90;;;;;;5055862;28;20431;-84
2023/05/03 00:13:37;;;;;;;19.17;1.03;;;9.80;99.90;;;;;;5056014;28;20837;-84
2023/05/03 00:16:04;;;;;;;1.20;0.93;;;9.80;99.90;;;;;;5056064;28;20478;-85
2023/05/03 00:18:31;;;;;;;1.70;0.60;;;9.80;99.90;;;;;;5055739;28;20968;-84
2023/05/03 00:20:58;;;;;;;1.30;1.20;;;9.70;99.90;;;;;;5055638;28;20972;-85
2023/05/03 00:23:27;;;;;;;2.50;1.10;;;9.70;99.90;;;;;;5055948;28;20445;-85
2023/05/03 00:25:54;;;;;;;2.33;1.10;;;9.70;99.90;;;;;;5055603;28;20503;-84
2023/05/03 00:28:22;;;;;;;1.90;0.87;;;9.70;99.90;;;;;;5055860;28;20454;-84
2023/05/03 00:30:48;;;;;;;0.60;0.60;;;9.70;99.90;;;;;;5055520;28;20447;-84
2023/05/03 00:33:16;;;;;;;2.40;1.17;;;9.70;99.90;;;;;;5055454;28;20464;-84
2023/05/03 00:35:43;;;;;;;1.87;1.10;;;9.70;99.90;;;;;;5055266;28;20879;-85
2023/05/03 00:38:10;;;;;;;2.60;1.30;;;9.60;99.90;;;;;;5055423;28;20442;-84
2023/05/03 00:40:38;;;;;;;1.37;0.73;;;9.60;99.90;;;;;;5055651;28;20511;-84
2023/05/03 00:43:05;;;;;;;1.40;1.00;;;9.60;99.90;;;;;;5055533;28;20481;-85
2023/05/03 00:45:34;;;;;;;2.83;1.07;;;9.60;99.90;;;;;;5055646;28;20446;-84
2023/05/03 00:48:01;;;;;;;1.13;0.63;;;9.60;99.90;;;;;;5055664;28;20439;-85
2023/05/03 00:50:29;;;;;;;3.67;0.90;;;9.60;99.90;;;;;;5055533;28;20797;-84
2023/05/03 00:52:56;;;;;;;2.93;1.00;;;9.60;99.90;;;;;;5055417;28;20475;-84
2023/05/03 00:55:24;;;;;;;1.70;1.10;;;9.50;99.90;;;;;;5055101;28;20817;-85
2023/05/03 00:57:53;;;;;;;2.00;1.30;;;9.50;99.90;;;;;;5055370;28;20532;-85
2023/05/03 01:00:21;;;;;;;5.80;0.80;;;9.50;99.90;;;;;;5055332;28;20450;-85
2023/05/03 01:02:48;;;;;;;1.47;0.50;;;9.50;99.90;;;;;;5054764;28;20514;-84
2023/05/03 01:05:15;;;;;;;1.63;0.73;;;9.40;99.90;;;;;;5055219;28;20451;-84
2023/05/03 01:07:53;;;;;;;0.70;0.60;;;9.30;99.90;;;;;;5055001;28;20439;-85
2023/05/03 01:10:26;;;;;;;1.00;0.60;;;9.30;99.90;;;;;;5055138;28;20883;-85
2023/05/03 01:13:00;;;;;;;1.90;0.70;;;9.20;99.90;;;;;;5055018;28;20470;-84
2023/05/03 01:15:39;;;;;;;2.73;1.30;;;9.20;99.90;;;;;;5054809;28;20435;-84
2023/05/03 01:18:11;;;;;;;0.80;0.80;;;9.20;99.90;;;;;;5053831;28;20466;-84
2023/05/03 01:20:39;;;;;;;1.67;0.60;;;9.20;99.90;;;;;;5054959;28;20442;-85
2023/05/03 01:23:18;;;;;;;1.63;0.83;;;9.10;99.90;;;;;;5054520;28;20829;-84
2023/05/03 01:25:46;;;;;;;1.80;1.13;;;9.10;99.90;;;;;;5054861;28;20437;-84
2023/05/03 01:28:13;;;;;;;2.40;0.90;;;9.10;99.90;;;;;;5054809;28;20530;-84
2023/05/03 01:30:41;;;;;;;2.23;0.90;;;9.00;99.90;;;;;;5054375;28;20831;-85
2023/05/03 01:33:13;;;;;;;2.60;1.03;;;9.00;99.90;;;;;;5054566;28;20485;-84
2023/05/03 01:35:43;;;;;;;1.90;0.83;;;8.90;99.90;;;;;;5054644;28;20435;-84
2023/05/03 01:38:12;;;;;;;4.50;2.13;;;8.90;99.90;;;;;;5054493;28;20475;-84
2023/05/03 01:40:43;;;;;;;2.93;1.43;;;8.90;99.90;;;;;;5054193;28;20446;-85
2023/05/03 01:43:13;;;;;;;1.87;1.03;;;8.90;99.90;;;;;;5054481;28;20469;-84
2023/05/03 01:45:40;;;;;;;1.57;1.23;;;8.90;99.90;;;;;;5054208;28;20798;-85
2023/05/03 01:48:11;;;;;;;2.70;0.83;;;8.90;99.90;;;;;;5054361;28;20450;-84
2023/05/03 01:50:37;;;;;;;0.90;0.90;;;8.80;99.90;;;;;;5054328;28;20474;-84
2023/05/03 01:53:04;;;;;;;0.70;0.70;;;8.70;99.90;;;;;;5054213;28;20474;-84
2023/05/03 01:55:31;;;;;;;2.03;0.83;;;8.80;99.90;;;;;;5053939;28;20438;-84
2023/05/03 01:57:58;;;;;;;2.00;0.90;;;8.80;99.90;;;;;;5053813;28;21031;-84
2023/05/03 02:00:26;;;;;;;2.00;1.27;;;8.80;99.90;;;;;;5053800;28;20457;-84
2023/05/03 02:02:53;;;;;;;2.10;1.20;;;8.70;99.90;;;;;;5053570;28;20482;-84
2023/05/03 02:05:20;;;;;;;1.67;0.80;;;8.70;99.90;;;;;;5054044;28;20454;-85
2023/05/03 02:07:47;;;;;;;5.10;1.40;;;8.60;99.90;;;;;;5053675;28;20850;-84
2023/05/03 02:10:15;;;;;;;0.97;0.90;;;8.60;99.90;;;;;;5054003;28;20435;-85
2023/05/03 02:12:42;;;;;;;1.20;0.80;;;8.60;99.90;;;;;;5053800;28;20881;-84
2023/05/03 02:15:09;;;;;;;0.80;0.70;;;8.50;99.90;;;;;;5053844;28;20450;-84
2023/05/03 02:17:37;;;;;;;2.87;1.13;;;8.50;99.90;;;;;;5053742;28;20485;-84
2023/05/03 02:20:05;;;;;;;2.50;1.33;;;8.50;99.90;;;;;;5053541;28;20435;-85
2023/05/03 02:22:32;;;;;;;1.00;0.90;;;8.50;99.90;;;;;;5053414;28;20504;-84
2023/05/03 02:24:59;;;;;;;2.50;1.63;;;8.50;99.90;;;;;;5053480;28;20442;-84
2023/05/03 02:27:26;;;;;;;1.03;1.00;;;8.50;99.90;;;;;;5053697;28;20455;-84
2023/05/03 02:29:53;;;;;;;2.43;1.20;;;8.50;99.90;;;;;;5052973;28;21012;-84
2023/05/03 02:32:20;;;;;;;1.77;1.60;;;8.40;99.90;;;;;;5053501;28;20465;-85
2023/05/03 02:34:49;;;;;;;0.80;0.80;;;8.40;99.90;;;;;;5053608;28;20482;-84
2023/05/03 02:37:16;;;;;;;2.47;0.97;;;8.30;99.90;;;;;;5053171;28;20489;-84
2023/05/03 02:39:43;;;;;;;1.00;0.93;;;8.20;99.90;;;;;;5053479;28;20455;-84
2023/05/03 02:42:10;;;;;;;3.07;1.20;;;8.20;99.90;;;;;;5053431;28;20827;-84
2023/05/03 02:44:36;;;;;;;1.10;0.93;;;8.30;99.90;;;;;;5053149;28;20949;-84
2023/05/03 02:47:03;;;;;;;3.37;1.50;;;8.30;99.90;;;;;;5053226;28;20439;-84
2023/05/03 02:49:30;;;;;;;1.23;0.90;;;8.30;99.90;;;;;;5053425;28;20457;-84
2023/05/03 02:51:58;;;;;;;1.47;0.83;;;8.20;99.90;;;;;;5053071;28;20882;-84
2023/05/03 02:54:24;;;;;;;0.70;0.60;;;8.20;99.90;;;;;;5053471;28;20453;-84
2023/05/03 02:56:51;;;;;;;0.90;0.90;;;8.20;99.90;;;;;;5053287;28;20486;-85
2023/05/03 02:59:18;;;;;;;1.37;1.00;;;8.20;99.90;;;;;;5052957;28;20457;-84
2023/05/03 03:01:46;;;;;;;0.93;0.83;;;8.10;99.90;;;;;;5052755;28;20486;-85
2023/05/03 03:04:13;;;;;;;1.07;0.90;;;8.10;99.90;;;;;;5052977;28;20972;-84
2023/05/03 03:06:39;;;;;;;1.03;0.80;;;8.10;99.90;;;;;;5053288;28;20447;-84
2023/05/03 03:09:08;;;;;;;3.37;1.83;;;8.10;99.90;;;;;;5053929;28;20454;-84
2023/05/03 03:11:34;;;;;;;0.87;0.60;;;8.10;99.90;;;;;;5053192;28;20545;-84
2023/05/03 03:14:01;;;;;;;2.20;1.37;;;8.00;99.90;;;;;;5053180;28;20442;-84
2023/05/03 03:16:28;;;;;;;5.10;2.17;;;8.00;99.90;;;;;;5052832;28;20450;-84
2023/05/03 03:18:55;;;;;;;1.13;0.97;;;8.00;99.90;;;;;;5053042;28;20482;-84
2023/05/03 03:21:22;;;;;;;1.37;0.93;;;8.00;99.90;;;;;;5053018;28;20466;-84
2023/05/03 03:23:48;;;;;;;9.67;2.20;;;8.00;99.90;;;;;;5052819;28;20443;-84
2023/05/03 03:26:17;;;;;;;3.10;2.50;;;7.90;99.90;;;;;;5052946;28;20435;-84
2023/05/03 03:28:44;;;;;;;1.23;0.90;;;7.90;99.90;;;;;;5052983;28;20454;-84
2023/05/03 03:31:11;;;;;;;1.30;0.70;;;7.90;99.90;;;;;;5052924;28;20446;-84
2023/05/03 03:33:37;;;;;;;1.23;1.13;;;7.80;99.90;;;;;;5052671;28;20961;-84
2023/05/03 03:36:06;;;;;;;3.37;1.40;;;7.80;99.90;;;;;;5052606;28;20450;-84
2023/05/03 03:38:33;;;;;;;1.00;0.70;;;7.80;99.90;;;;;;5052831;28;20540;-84
2023/05/03 03:41:00;;;;;;;1.93;1.00;;;7.70;99.90;;;;;;5053692;28;20450;-84
2023/05/03 03:43:28;;;;;;;5.80;1.27;;;7.70;99.90;;;;;;5056780;28;20446;-84
2023/05/03 03:45:55;;;;;;;1.50;1.13;;;7.60;99.90;;;;;;5056701;28;20461;-84
2023/05/03 03:48:21;;;;;;;2.20;1.20;;;7.60;99.90;;;;;;5056533;28;20451;-84
2023/05/03 03:50:48;;;;;;;2.33;1.40;;;7.60;99.90;;;;;;5056631;28;20446;-85
2023/05/03 03:53:15;;;;;;;3.77;1.23;;;7.60;99.90;;;;;;5056462;28;20474;-84
2023/05/03 03:55:42;;;;;;;1.00;0.80;;;7.60;99.90;;;;;;5056511;28;20446;-84
2023/05/03 03:58:09;;;;;;;1.87;1.10;;;7.60;99.90;;;;;;5056372;28;20482;-84
2023/05/03 04:00:37;;;;;;;3.60;1.40;;;7.60;99.90;;;;;;5056393;28;20450;-84
2023/05/03 04:03:05;;;;;;;3.00;0.93;;;7.60;99.90;;;;;;5055984;28;20832;-84
2023/05/03 04:05:32;;;;;;;0.50;0.50;;;7.60;99.90;;;;;;5056323;28;20481;-84
2023/05/03 04:07:58;;;;;;;3.13;1.23;;;7.60;99.90;;;;;;5056285;28;20442;-84
2023/05/03 04:10:25;;;;;;;2.53;1.60;;;7.60;99.90;;;;;;5056231;28;20453;-84
2023/05/03 04:12:53;;;;;;;3.03;1.40;;;7.70;99.90;;;;;;5056110;28;20458;-84
2023/05/03 04:15:20;;;;;;;3.83;1.50;;;7.70;99.90;;;;;;5055827;28;20972;-85
2023/05/03 04:17:48;;;;;;;3.10;1.10;;;7.80;99.90;;;;;;5056020;28;20481;-84
2023/05/03 04:20:16;;;;;;;1.73;1.50;;;7.80;99.90;;;;;;5056011;28;20446;-84
2023/05/03 04:22:43;;;;;;;4.60;0.77;;;7.90;99.90;;;;;;5055610;28;20481;-84
2023/05/03 04:25:12;;;;;;;2.30;1.30;;;7.90;99.90;;;;;;5055989;28;20458;-85
2023/05/03 04:27:39;;;;;;;3.70;1.50;;;8.00;99.90;;;;;;5055935;28;20524;-84
2023/05/03 04:30:08;;;;;;;4.80;1.43;;;8.10;99.90;;;;;;5055921;28;20484;-84
2023/05/03 04:32:36;;;;;;;5.40;0.73;;;8.20;99.90;;;;;;5056010;28;20798;-84
2023/05/03 04:35:08;;;;;;;2.20;1.20;;;8.20;99.90;;;;;;5055446;28;20845;-85
2023/05/03 04:37:34;;;;;;;1.63;1.17;;;8.30;99.90;;;;;;5055504;28;20463;-86
2023/05/03 04:40:01;;;;;;;5.17;1.97;;;8.30;99.90;;;;;;5055713;28;20512;-86
2023/05/03 04:42:28;;;;;;;2.33;1.33;;;8.30;99.90;;;;;;5055620;28;20469;-86
2023/05/03 04:44:55;;;;;;;4.30;1.73;;;8.40;99.90;;;;;;5055811;28;20814;-86
2023/05/03 04:47:23;;;;;;;2.30;1.07;;;8.40;99.90;;;;;;5055686;28;20449;-86
2023/05/03 04:49:50;;;;;;;1.87;1.40;;;8.40;99.90;;;;;;5055211;28;20457;-86
2023/05/03 04:52:18;;;;;;;2.50;1.43;;;8.50;99.90;;;;;;5055211;28;20474;-86
2023/05/03 04:54:45;;;;;;;2.47;1.10;;;8.60;99.90;;;;;;5055456;28;20450;-85
2023/05/03 04:57:12;;;;;;;3.83;1.63;;;8.60;99.90;;;;;;5055020;28;20487;-86
2023/05/03 04:59:38;;;;;;;3.23;1.50;;;8.70;99.90;;;;;;5055425;28;20466;-86
2023/05/03 05:02:05;;;;;;;1.87;0.90;;;8.70;99.90;;;;;;5054834;28;20482;-86
2023/05/03 05:04:32;;;;;;;4.97;1.97;;;8.80;99.90;;;;;;5055356;28;20453;-86
2023/05/03 05:06:59;;;;;;;5.63;1.83;;;8.80;99.90;;;;;;5055389;28;20461;-86
2023/05/03 05:09:29;;;;;;;1.90;1.40;;;8.90;99.90;;;;;;5054933;28;20439;-86
2023/05/03 05:11:56;;;;;;;4.13;1.70;;;8.90;99.90;;;;;;5055177;28;20480;-86
2023/05/03 05:14:23;;;;;;;4.43;1.90;;;9.00;99.90;;;;;;5055191;28;20457;-85
2023/05/03 05:16:50;;;;;;;2.17;1.70;;;9.00;99.90;;;;;;5055172;28;20461;-86
2023/05/03 05:19:17;;;;;;;3.07;1.77;;;9.00;99.90;;;;;;5054583;28;20490;-85
2023/05/03 05:21:43;;;;;;;2.00;1.13;;;9.10;99.90;;;;;;5054916;28;20473;-86
2023/05/03 05:24:10;;;;;;;3.27;2.27;;;9.10;99.90;;;;;;5054893;28;20458;-86
2023/05/03 05:26:38;;;;;;;10.93;1.50;;;9.20;99.90;;;;;;5054867;28;20447;-85
2023/05/03 05:29:05;;;;;;;2.60;1.70;;;9.20;99.90;;;;;;5054810;28;20451;-86
2023/05/03 05:31:32;;;;;;;2.50;1.40;;;9.20;99.90;;;;;;5054719;28;20474;-86
2023/05/03 05:33:58;;;;;;;4.30;1.90;;;9.30;99.90;;;;;;5054753;28;20439;-86
2023/05/03 05:36:26;;;;;;;4.23;1.77;;;9.30;99.90;;;;;;5054648;28;20453;-86
2023/05/03 05:38:52;;;;;;;2.03;1.40;;;9.30;99.90;;;;;;5054604;28;20929;-86
2023/05/03 05:41:19;;;;;;;4.77;1.57;;;9.30;99.90;;;;;;5054528;28;20475;-86
2023/05/03 05:43:48;;;;;;;2.97;1.60;;;9.30;99.90;;;;;;5054546;28;20455;-86
2023/05/03 05:46:15;;;;;;;2.30;1.70;;;9.30;99.90;;;;;;5054389;28;20454;-86
2023/05/03 05:48:42;;;;;;;3.33;1.67;;;9.40;99.90;;;;;;5054111;28;20500;-86
2023/05/03 05:51:09;;;;;;;2.03;1.10;;;9.40;99.90;;;;;;5053982;28;20442;-86
2023/05/03 05:53:36;;;;;;;6.20;2.60;;;9.50;99.90;;;;;;5054078;28;20445;-86
2023/05/03 05:56:02;;;;;;;3.10;1.67;;;9.60;99.90;;;;;;5054330;28;20446;-86
2023/05/03 05:58:29;;;;;;;6.80;2.50;;;9.70;99.90;;;;;;5054248;28;20478;-86
2023/05/03 06:01:00;;;;;;;4.17;2.33;;;9.70;99.90;;;;;;5053945;28;20816;-86
2023/05/03 06:03:26;;;;;;;2.67;1.50;;;9.80;99.90;;;;;;5053558;28;20439;-86
2023/05/03 06:05:53;;;;;;;4.40;1.83;;;9.80;99.90;;;;;;5054111;28;20446;-86
2023/05/03 06:08:20;;;;;;;3.53;1.43;;;9.80;99.90;;;;;;5054113;28;20794;-86
2023/05/03 06:10:47;;;;;;;1.90;1.27;;;9.70;99.90;;;;;;5053680;28;20454;-86
2023/05/03 06:13:13;;;;;;;3.93;2.70;;;9.80;99.90;;;;;;5053920;28;20474;-86
2023/05/03 06:15:40;;;;;;;4.17;2.63;;;9.80;99.90;;;;;;5054051;28;20457;-86
2023/05/03 06:18:09;;;;;;;6.60;3.13;;;9.80;99.90;;;;;;5053962;28;20822;-86
2023/05/03 06:20:35;;;;;;;4.03;1.53;;;9.80;99.90;;;;;;5053914;28;20453;-86
2023/05/03 06:23:02;;;;;;;4.30;2.40;;;9.80;99.90;;;;;;5053839;28;20473;-86
2023/05/03 06:25:29;;;;;;;3.47;2.50;;;9.90;99.90;;;;;;5053825;28;20450;-86
2023/05/03 06:27:55;;;;;;;4.73;2.40;;;10.00;99.90;;;;;;5053462;28;20447;-86
2023/05/03 06:30:24;;;;;;;5.70;2.53;;;10.10;99.90;;;;;;5053735;28;20454;-86
2023/05/03 06:32:51;;;;;;;3.77;1.67;;;10.20;99.90;;;;;;5053581;28;20475;-86
2023/05/03 06:35:20;;;;;;;2.67;1.20;;;10.20;99.90;;;;;;5053661;28;20823;-86
2023/05/03 06:37:47;;;;;;;4.20;2.47;;;10.30;99.90;;;;;;5053684;28;20434;-86
2023/05/03 06:40:14;;;;;;;3.60;2.03;;;10.40;99.90;;;;;;5053569;28;20549;-85
2023/05/03 06:42:41;;;;;;;4.20;2.60;;;10.40;99.90;;;;;;5053233;28;20473;-84
2023/05/03 06:45:08;;;;;;;5.77;2.73;;;10.40;99.90;;;;;;5053520;28;20449;-85
2023/05/03 06:47:35;;;;;;;3.23;1.90;;;10.40;99.90;;;;;;5053440;28;20534;-85
2023/05/03 06:50:02;;;;;;;10.07;2.23;;;10.50;99.90;;;;;;5053397;28;20816;-85
2023/05/03 06:52:31;;;;;;;4.43;2.57;;;10.50;99.90;;;;;;5053403;28;20462;-85
2023/05/03 06:54:57;;;;;;;4.97;2.20;;;10.70;99.90;;;;;;5053328;28;20453;-84
2023/05/03 06:57:24;;;;;;;3.07;2.20;;;10.80;99.90;;;;;;5053254;28;20463;-85
2023/05/03 06:59:51;;;;;;;1.93;1.83;;;10.80;99.90;;;;;;5052930;28;20830;-84
2023/05/03 07:02:18;;;;;;;6.57;2.47;;;11.00;99.90;;;;;;5052827;28;20481;-84
2023/05/03 07:04:45;;;;;;;2.20;2.00;;;11.10;99.90;;;;;;5053255;28;20450;-84
2023/05/03 07:07:11;;;;;;;3.67;1.90;;;11.20;99.90;;;;;;5053194;28;20457;-85
2023/05/03 07:09:40;;;;;;;4.70;2.90;;;11.30;99.90;;;;;;5053246;28;20449;-85
2023/05/03 07:12:07;;;;;;;5.80;2.77;;;11.40;99.90;;;;;;5052859;28;20471;-85
2023/05/03 07:14:33;;;;;;;5.93;1.83;;;11.50;99.90;;;;;;5053004;28;20952;-85
2023/05/03 07:17:00;;;;;;;2.77;2.40;;;11.60;99.90;;;;;;5071277;28;20452;-85
2023/05/03 07:19:27;;;;;;;8.10;4.07;;;11.60;99.90;;;;;;5076885;28;21024;-85
2023/05/03 07:21:53;;;;;;;2.67;2.07;;;11.70;99.90;;;;;;5077057;28;20473;-85
2023/05/03 07:24:20;;;;;;;1.87;1.77;;;11.80;99.90;;;;;;5077145;28;20453;-85
2023/05/03 07:26:48;;;;;;;7.07;3.33;;;11.80;99.90;;;;;;5077100;28;20453;-85
2023/05/03 07:29:15;;;;;;;4.20;2.50;;;11.80;99.90;;;;;;5077084;28;20464;-84
2023/05/03 07:31:43;;;;;;;4.47;2.00;;;11.80;99.90;;;;;;5076951;28;20469;-85
2023/05/03 07:34:10;;;;;;;5.13;3.30;;;11.80;99.90;;;;;;5076604;28;20457;-84
2023/05/03 07:36:37;;;;;;;3.93;2.37;;;11.80;99.90;;;;;;5076911;28;20478;-85
2023/05/03 07:39:04;;;;;;;7.53;3.13;;;11.90;99.90;;;;;;5076765;28;20484;-85
2023/05/03 07:41:31;;;;;;;3.27;2.30;;;12.10;99.90;;;;;;5076426;28;20989;-85
2023/05/03 07:43:59;;;;;;;4.40;2.23;;;12.30;99.90;;;;;;5076733;28;20453;-85
2023/05/03 07:46:26;;;;;;;3.70;2.37;;;12.60;99.90;;;;;;5076740;28;20788;-85
2023/05/03 07:48:52;;;;;;;5.60;2.43;;;13.00;99.90;;;;;;5076666;28;20507;-85
2023/05/03 07:51:19;;;;;;;5.60;2.70;;;13.40;99.90;;;;;;5076492;28;20481;-85
2023/05/03 07:53:46;;;;;;;4.97;2.60;;;13.90;99.90;;;;;;5076514;28;20449;-85
2023/05/03 07:56:13;;;;;;;4.80;2.70;;;14.40;99.90;;;;;;5076207;28;20963;-85
2023/05/03 07:58:39;;;;;;;4.60;2.70;;;14.60;99.90;;;;;;5076391;28;20632;-85
2023/05/03 08:01:07;;;;;;;3.53;2.50;;;14.70;99.90;;;;;;5076543;28;20485;-84
2023/05/03 08:03:34;;;;;;;7.97;3.50;;;14.80;99.90;;;;;;5076312;28;20453;-84
2023/05/03 08:06:01;;;;;;;5.03;3.27;;;15.10;99.90;;;;;;5076312;28;20448;-85
2023/05/03 08:08:28;;;;;;;4.50;3.20;;;15.20;99.90;;;;;;5076352;28;20445;-87
2023/05/03 08:10:55;;;;;;;4.90;3.33;;;15.00;99.90;;;;;;5076294;28;20445;-87
2023/05/03 08:13:21;;;;;;;5.17;3.07;;;14.80;99.90;;;;;;5076457;28;20807;-86
2023/05/03 08:15:48;;;;;;;6.30;3.33;;;14.60;99.90;;;;;;5076312;28;20446;-87
2023/05/03 08:18:16;;;;;;;6.53;3.43;;;14.90;99.90;;;;;;5076287;28;20814;-86
2023/05/03 08:20:45;;;;;;;3.20;2.47;;;15.70;99.90;;;;;;5076301;28;20457;-87
2023/05/03 08:23:12;;;;;;;8.90;3.07;;;16.40;99.90;;;;;;5076280;28;20466;-87
2023/05/03 08:25:39;;;;;;;4.37;3.40;;;17.40;99.90;;;;;;5076118;28;20456;-87
2023/05/03 08:28:07;;;;;;;6.30;3.80;;;18.20;99.90;;;;;;5075254;28;20442;-87
2023/05/03 08:30:34;;;;;;;5.47;3.43;;;18.80;99.90;;;;;;5076045;28;20445;-89
2023/05/03 08:33:01;;;;;;;5.70;3.33;;;19.20;99.90;;;;;;5075643;28;20994;-87
2023/05/03 08:35:30;;;;;;;5.10;3.90;;;19.60;99.90;;;;;;5075966;28;20491;-87
2023/05/03 08:37:57;;;;;;;5.87;3.80;;;19.80;99.90;;;;;;5076220;28;20461;-89
2023/05/03 08:40:26;;;;;;;6.10;3.53;;;19.90;99.90;;;;;;5075904;28;20484;-88
2023/05/03 08:42:56;;;;;;;4.67;3.20;;;19.90;99.90;;;;;;5075931;28;20470;-87
2023/05/03 08:45:23;;;;;;;5.67;3.33;;;19.90;99.90;;;;;;5075888;28;20449;-88
2023/05/03 08:47:54;;;;;;;5.97;4.13;;;19.90;99.90;;;;;;5075459;28;20449;-87
2023/05/03 08:50:21;;;;;;;4.17;2.93;;;19.70;99.90;;;;;;5075941;28;20431;-88
2023/05/03 08:52:50;;;;;;;7.80;3.90;;;19.60;99.90;;;;;;5075896;28;20469;-88
2023/05/03 08:55:16;;;;;;;4.47;2.60;;;19.80;99.90;;;;;;5075969;28;20449;-88
2023/05/03 08:57:43;;;;;;;7.63;3.73;;;19.80;99.90;;;;;;5075893;28;20469;-88
2023/05/03 09:00:11;;;;;;;4.43;3.20;;;19.50;99.90;;;;;;5075879;28;20500;-87
2023/05/03 09:02:39;;;;;;;5.07;3.27;;;19.30;99.90;;;;;;5075147;28;20995;-87
2023/05/03 09:05:26;;;;;;;8.13;3.50;;;19.00;99.90;;;;;;5075549;28;20491;-87
2023/05/03 09:08:05;;;;;;;7.30;3.83;;;18.90;99.90;;;;;;5074969;28;20929;-87
2023/05/03 09:10:33;;;;;;;4.43;3.33;;;18.80;99.90;;;;;;5075752;28;20924;-88
2023/05/03 09:13:01;;;;;;;5.87;3.37;;;18.90;99.90;;;;;;5075320;28;20466;-87
2023/05/03 09:15:29;;;;;;;3.40;2.93;;;19.10;99.90;;;;;;5075320;28;20548;-87
2023/05/03 09:18:10;;;;;;;3.67;2.73;;;19.20;99.90;;;;;;5074903;28;20548;-87
2023/05/03 09:20:38;;;;;;;5.63;2.90;;;18.90;99.90;;;;;;5075299;28;20477;-88
2023/05/03 09:23:07;;;;;;;4.30;2.83;;;18.70;99.90;;;;;;5075190;28;20504;-87
2023/05/03 09:25:42;;;;;;;5.13;2.33;;;18.60;99.90;;;;;;5075160;28;20456;-87
2023/05/03 09:28:09;;;;;;;3.93;3.10;;;18.50;99.90;;;;;;5075155;28;20807;-87
2023/05/03 09:30:35;;;;;;;3.70;3.00;;;18.00;99.90;;;;;;5074657;28;20442;-85
2023/05/03 09:33:03;;;;;;;4.83;2.33;;;17.80;99.90;;;;;;5075089;28;20473;-89
2023/05/03 09:35:31;;;;;;;4.27;2.60;;;17.40;99.90;;;;;;5075276;28;20434;-85
2023/05/03 09:37:57;;;;;;;3.93;2.10;;;17.40;99.90;;;;;;5074521;28;20481;-86
2023/05/03 09:40:25;;;;;;;3.27;1.90;;;17.60;99.90;;;;;;5075317;28;20481;-86
2023/05/03 09:43:10;;;;;;;6.47;3.20;;;17.80;99.90;;;;;;5075329;28;20476;-85
2023/05/03 09:45:37;;;;;;;6.20;3.10;;;18.10;99.90;;;;;;5073518;28;20460;-87
2023/05/03 09:48:06;;;;;;;4.70;3.13;;;18.10;99.90;;;;;;5074386;28;20456;-86
2023/05/03 09:50:33;;;;;;;5.67;3.00;;;17.90;99.90;;;;;;5074214;28;20941;-87
2023/05/03 09:53:03;;;;;;;4.50;2.70;;;17.80;99.90;;;;;;5074301;28;20535;-87
2023/05/03 09:55:36;;;;;;;4.53;3.03;;;17.80;99.90;;;;;;5074131;28;20492;-86
2023/05/03 09:58:06;;;;;;;2.87;2.40;;;17.80;99.90;;;;;;5074147;28;20874;-87
2023/05/03 10:00:37;;;;;;;7.03;2.87;;;17.90;99.90;;;;;;5075019;28;20830;-86
2023/05/03 10:03:09;;;;;;;3.33;2.47;;;17.80;99.90;;;;;;5073940;28;20453;-87
2023/05/03 10:05:42;;;;;;;5.03;2.97;;;17.70;99.90;;;;;;5074375;28;20436;-88
2023/05/03 10:08:12;;;;;;;3.10;2.77;;;18.00;99.90;;;;;;5074461;28;20445;-86
2023/05/03 10:10:43;;;;;;;8.20;2.70;;;18.80;99.90;;;;;;5073870;28;20445;-86
2023/05/03 10:13:11;;;;;;;4.33;2.13;;;19.50;99.90;;;;;;5073789;28;20452;-86
2023/05/03 10:15:41;;;;;;;7.10;2.97;;;19.50;99.90;;;;;;5073636;28;20437;-85
2023/05/03 10:18:10;;;;;;;2.40;1.53;;;19.20;99.90;;;;;;5073945;28;20441;-86
2023/05/03 10:20:41;;;;;;;3.90;2.60;;;18.60;99.90;;;;;;5073503;28;20481;-86
2023/05/03 10:23:09;;;;;;;4.40;2.70;;;18.30;99.90;;;;;;5073837;28;20473;-86
2023/05/03 10:25:37;;;;;;;3.80;2.73;;;18.00;99.90;;;;;;5073506;28;20937;-86
2023/05/03 10:28:07;;;;;;;4.53;2.67;;;17.80;99.90;;;;;;5073547;28;20525;-86
2023/05/03 10:30:35;;;;;;;2.20;2.00;;;17.80;99.90;;;;;;5073371;28;20991;-86
2023/05/03 10:33:31;;;;;;;2.67;2.10;;;18.00;99.90;;;;;;5073596;28;20469;-85
2023/05/03 10:36:00;;;;;;;2.07;1.63;;;18.60;99.90;;;;;;5073714;28;20472;-86
2023/05/03 10:38:28;;;;;;;5.20;2.57;;;18.80;99.90;;;;;;5073567;28;20461;-86
2023/05/03 10:40:55;;;;;;;4.40;2.20;;;18.70;99.90;;;;;;5073537;28;20512;-87
2023/05/03 10:43:45;;;;;;;3.73;2.53;;;18.30;99.90;;;;;;5073559;28;20453;-86
2023/05/03 10:46:33;;;;;;;17.63;2.70;;;18.00;99.90;;;;;;5073581;28;20433;-85
2023/05/03 10:49:19;;;;;;;4.10;2.50;;;17.70;99.90;;;;;;5073532;28;20453;-86
2023/05/03 10:51:46;;;;;;;3.83;1.80;;;17.40;99.90;;;;;;5073253;28;20476;-85
2023/05/03 10:54:13;;;;;;;3.63;1.93;;;17.90;99.90;;;;;;5073502;28;20449;-85
2023/05/03 10:56:54;;;;;;;4.40;2.47;;;18.60;99.90;;;;;;5073402;28;20449;-86
2023/05/03 10:59:24;;;;;;;2.90;1.93;;;19.30;99.90;;;;;;5073090;28;20469;-86
2023/05/03 11:01:52;;;;;;;3.60;2.27;;;19.70;99.90;;;;;;5073026;28;20547;-85
2023/05/03 11:04:37;;;;;;;3.30;2.10;;;19.70;99.90;;;;;;5073026;28;20449;-87
2023/05/03 11:07:04;;;;;;;2.33;1.87;;;19.30;99.90;;;;;;5070677;28;20457;-86
2023/05/03 11:09:32;;;;;;;2.37;2.10;;;18.90;99.90;;;;;;5073308;28;20530;-86
2023/05/03 11:12:03;;;;;;;2.80;1.73;;;18.30;99.90;;;;;;5072986;28;20544;-86
2023/05/03 11:14:31;;;;;;;5.13;2.20;;;17.90;99.90;;;;;;5073427;28;20410;-87
2023/05/03 11:16:58;;;;;;;2.33;2.10;;;17.60;99.90;;;;;;5073166;28;20480;-86
2023/05/03 11:19:25;;;;;;;4.63;2.10;;;17.40;99.90;;;;;;5073095;28;20454;-86
2023/05/03 11:21:52;;;;;;;2.27;2.07;;;17.30;99.90;;;;;;5073629;28;20564;-86
2023/05/03 11:24:19;;;;;;;3.80;2.20;;;17.50;99.90;;;;;;5073176;28;20434;-86
2023/05/03 11:26:45;;;;;;;3.13;2.03;;;17.40;99.90;;;;;;5072953;28;20434;-86
2023/05/03 11:29:12;;;;;;;4.20;2.20;;;17.30;99.90;;;;;;5072841;28;20949;-86
2023/05/03 11:31:42;;;;;;;2.33;1.47;;;17.10;99.90;;;;;;5073033;28;20473;-86
2023/05/03 11:34:09;;;;;;;2.40;1.80;;;17.20;99.90;;;;;;5073063;28;20460;-86
2023/05/03 11:36:35;;;;;;;4.20;2.70;;;17.40;99.90;;;;;;5072745;28;20434;-86
2023/05/03 11:39:04;;;;;;;2.33;1.93;;;17.60;99.90;;;;;;5073037;28;20411;-86
2023/05/03 11:41:31;;;;;;;3.53;2.30;;;17.70;99.90;;;;;;5072847;28;20481;-86
2023/05/03 11:43:58;;;;;;;2.27;1.70;;;17.60;99.90;;;;;;5072894;28;20445;-86
2023/05/03 11:46:28;;;;;;;1.30;1.20;;;17.60;99.90;;;;;;5072673;28;20445;-85
2023/05/03 11:48:56;;;;;;;2.87;1.67;;;17.50;99.90;;;;;;5072875;28;20451;-86
2023/05/03 11:51:23;;;;;;;4.87;2.07;;;17.60;99.90;;;;;;5072772;28;20465;-85
2023/05/03 11:53:51;;;;;;;5.77;2.40;;;17.80;99.90;;;;;;5072834;28;20457;-85
2023/05/03 11:56:19;;;;;;;2.50;1.40;;;17.90;99.90;;;;;;5072806;28;20442;-85
2023/05/03 11:58:51;;;;;;;2.93;1.67;;;18.10;99.90;;;;;;5072827;28;20449;-85
2023/05/03 12:01:20;;;;;;;1.87;1.57;;;18.20;99.90;;;;;;5072615;28;20539;-85
2023/05/03 12:03:48;;;;;;;3.67;2.40;;;18.20;99.90;;;;;;5076279;28;20441;-85
2023/05/03 12:06:16;;;;;;;1.87;1.30;;;17.90;99.90;;;;;;5076135;28;20894;-87
2023/05/03 12:08:43;;;;;;;4.80;1.60;;;17.70;99.90;;;;;;5076460;28;20453;-86
2023/05/03 12:11:10;;;;;;;2.93;1.70;;;17.50;99.90;;;;;;5076210;28;20437;-86
2023/05/03 12:13:38;;;;;;;3.43;2.10;;;17.50;99.90;;;;;;5076380;28;20453;-86
2023/05/03 12:16:06;;;;;;;2.33;1.70;;;17.60;99.90;;;;;;5076317;28;20449;-86
2023/05/03 12:18:46;;;;;;;2.10;1.47;;;17.60;99.90;;;;;;5076256;28;20429;-87
2023/05/03 12:21:14;;;;;;;1.53;1.33;;;17.60;99.90;;;;;;5075825;28;20999;-86
2023/05/03 12:23:42;;;;;;;3.13;1.80;;;17.70;99.90;;;;;;5076217;28;20453;-87
2023/05/03 12:26:09;;;;;;;3.13;1.87;;;17.70;99.90;;;;;;5076115;28;20834;-86
2023/05/03 12:28:35;;;;;;;1.70;1.33;;;17.70;99.90;;;;;;5076196;28;20494;-86
2023/05/03 12:31:03;;;;;;;4.10;1.60;;;17.40;99.90;;;;;;5075939;28;20460;-85
2023/05/03 12:33:30;;;;;;;2.43;2.23;;;17.30;99.90;;;;;;5075941;28;20548;-86
2023/05/03 12:35:57;;;;;;;2.20;1.20;;;17.10;99.90;;;;;;5075693;28;20500;-86
2023/05/03 12:38:24;;;;;;;1.50;1.30;;;17.00;99.90;;;;;;5075917;28;20507;-87
2023/05/03 12:40:53;;;;;;;6.70;2.23;;;17.10;99.90;;;;;;5075441;28;21004;-86
2023/05/03 12:43:20;;;;;;;1.90;1.70;;;17.20;99.90;;;;;;5075657;28;20466;-86
2023/05/03 12:45:46;;;;;;;1.40;1.30;;;17.30;99.90;;;;;;5075879;28;20820;-86
2023/05/03 12:48:13;;;;;;;1.70;1.33;;;17.40;99.90;;;;;;5075710;28;20446;-86
2023/05/03 12:50:40;;;;;;;1.07;0.97;;;17.50;99.90;;;;;;5075558;28;20442;-86
2023/05/03 12:53:07;;;;;;;1.23;1.13;;;17.70;99.90;;;;;;5075603;28;20469;-86
2023/05/03 12:55:34;;;;;;;1.87;1.43;;;17.60;99.50;;;;;;5075567;28;20503;-86
2023/05/03 12:58:03;;;;;;;2.37;2.27;;;17.50;98.40;;;;;;5075448;28;20941;-86